Time;durP1;ratioP1;P1;durP2;ratioP2;P2;SDS_P1;SDS_P2;PMS_P1;PMS_P2;Temp;Humidity;BMP_temperature;BMP_pressure;BME280_temperature;BME280_humidity;BME280_pressure;Samples;Min_cycle;Max_cycle;Signal;HPM_P1;HPM_P2
2022/10/22 00:02:26;;;;;;;2.08;0.60;;;;;;;12.10;100.00;96144.44;4911114;29;21542;-75
2022/10/22 00:05:12;;;;;;;0.98;0.38;;;;;;;12.01;100.00;96148.69;4911855;29;20043;-73
2022/10/22 00:07:58;;;;;;;1.40;0.50;;;;;;;11.97;100.00;96150.28;4911621;29;20052;-75
2022/10/22 00:10:44;;;;;;;0.52;0.20;;;;;;;11.95;100.00;96147.06;4914571;29;20401;-75
2022/10/22 00:13:30;;;;;;;0.10;0.10;;;;;;;11.92;100.00;96144.94;4910957;29;20073;-73
2022/10/22 00:16:16;;;;;;;0.10;0.10;;;;;;;11.91;100.00;96136.09;4915734;29;20144;-73
2022/10/22 00:19:02;;;;;;;0.10;0.10;;;;;;;11.90;100.00;96145.16;4910668;29;20403;-75
2022/10/22 00:21:48;;;;;;;1.00;0.43;;;;;;;11.91;100.00;96137.97;4912276;29;20048;-73
2022/10/22 00:24:35;;;;;;;0.68;0.32;;;;;;;11.87;100.00;96137.66;4913322;29;20219;-75
2022/10/22 00:27:21;;;;;;;0.60;0.20;;;;;;;11.97;100.00;96137.69;4911129;29;20775;-73
2022/10/22 00:30:08;;;;;;;0.35;0.20;;;;;;;12.05;100.00;96138.25;4911791;29;20099;-74
2022/10/22 00:32:54;;;;;;;2.40;1.30;;;;;;;12.05;100.00;96132.88;4911181;29;20070;-73
2022/10/22 00:35:39;;;;;;;2.10;0.93;;;;;;;12.06;100.00;96129.94;4915196;29;20043;-73
2022/10/22 00:38:25;;;;;;;0.20;0.17;;;;;;;12.10;100.00;96131.00;4909151;29;20126;-73
2022/10/22 00:41:11;;;;;;;1.83;0.57;;;;;;;12.07;100.00;96130.75;4901086;29;20276;-74
2022/10/22 00:44:03;;;;;;;0.90;0.40;;;;;;;12.07;100.00;96136.13;4915756;29;20047;-75
2022/10/22 00:46:49;;;;;;;1.40;0.50;;;;;;;11.99;100.00;96129.41;4910750;29;20528;-73
2022/10/22 00:49:35;;;;;;;0.70;0.30;;;;;;;11.99;100.00;96119.47;4910668;29;20468;-73
2022/10/22 00:52:21;;;;;;;1.40;0.50;;;;;;;12.05;100.00;96106.06;4900406;29;20146;-75
2022/10/22 00:55:08;;;;;;;1.35;0.50;;;;;;;12.05;100.00;96100.69;4912987;29;20130;-75
2022/10/22 00:57:56;;;;;;;1.25;0.50;;;;;;;12.02;100.00;96102.03;4912528;29;20044;-73
2022/10/22 01:00:42;;;;;;;1.73;0.68;;;;;;;11.97;100.00;96110.06;4913851;29;20101;-75
2022/10/22 01:03:28;;;;;;;2.58;0.95;;;;;;;11.96;100.00;96117.31;4911067;29;20213;-75
2022/10/22 01:06:20;;;;;;;2.17;0.70;;;;;;;12.06;100.00;96108.50;4910866;29;20173;-73
2022/10/22 01:09:38;;;;;;;2.08;0.88;;;;;;;12.16;100.00;96123.78;4909848;29;20477;-76
2022/10/22 01:12:34;;;;;;;1.13;0.40;;;;;;;12.20;100.00;96114.94;4907620;29;20123;-73
2022/10/22 01:15:28;;;;;;;0.82;0.35;;;;;;;12.18;100.00;96113.59;4909295;29;20103;-74
2022/10/22 01:18:44;;;;;;;0.32;0.20;;;;;;;12.19;100.00;96101.78;4908548;29;20143;-75
2022/10/22 01:21:35;;;;;;;0.63;0.28;;;;;;;12.18;100.00;96110.91;4909086;29;20110;-75
2022/10/22 01:24:32;;;;;;;0.47;0.22;;;;;;;12.24;100.00;96105.28;4911513;29;20056;-75
2022/10/22 01:27:28;;;;;;;1.27;0.40;;;;;;;12.28;100.00;96113.59;4909574;29;20513;-73
2022/10/22 01:30:17;;;;;;;0.60;0.30;;;;;;;12.24;100.00;96107.16;4912174;29;20047;-74
2022/10/22 01:33:08;;;;;;;0.70;0.30;;;;;;;12.26;100.00;96105.81;4911446;29;20048;-73
2022/10/22 01:35:54;;;;;;;0.73;0.30;;;;;;;12.21;100.00;96111.16;4911434;29;20716;-75
2022/10/22 01:38:41;;;;;;;0.75;0.30;;;;;;;12.22;100.00;96109.31;4910401;29;20056;-73
2022/10/22 01:41:28;;;;;;;0.20;0.20;;;;;;;12.22;100.00;96101.28;4912225;29;20051;-73
2022/10/22 01:44:25;;;;;;;0.17;0.10;;;;;;;12.22;100.00;96126.22;4910056;29;20404;-75
2022/10/22 01:47:16;;;;;;;0.20;0.20;;;;;;;12.14;100.00;96125.91;4912960;29;20055;-75
2022/10/22 01:50:32;;;;;;;0.22;0.20;;;;;;;12.20;100.00;96132.91;4914304;29;20105;-75
2022/10/22 01:53:31;;;;;;;0.75;0.38;;;;;;;12.17;100.00;96142.28;4907717;29;20617;-73
2022/10/22 01:56:40;;;;;;;1.20;0.43;;;;;;;12.20;100.00;96130.22;4911079;29;20036;-73
2022/10/22 01:59:51;;;;;;;1.30;0.50;;;;;;;12.25;100.00;96119.50;4907442;29;20167;-74
2022/10/22 02:02:48;;;;;;;2.07;0.77;;;;;;;12.26;100.00;96132.66;4912534;29;20071;-74
2022/10/22 02:05:50;;;;;;;2.90;1.20;;;;;;;12.27;100.00;96126.22;4914372;29;20474;-75
2022/10/22 02:08:38;;;;;;;1.38;0.55;;;;;;;12.32;100.00;96122.72;4912485;29;20578;-74
2022/10/22 02:11:23;;;;;;;1.10;0.40;;;;;;;12.34;100.00;96112.53;4911175;29;20062;-74
2022/10/22 02:14:11;;;;;;;1.00;0.40;;;;;;;12.39;100.00;96101.00;4911458;29;20044;-75
2022/10/22 02:16:59;;;;;;;0.60;0.30;;;;;;;12.44;100.00;96115.22;4911669;29;20480;-74
2022/10/22 02:20:07;;;;;;;1.67;0.57;;;;;;;12.39;100.00;96130.53;4898213;29;20123;-74
2022/10/22 02:22:54;;;;;;;1.70;0.55;;;;;;;12.31;100.00;96131.84;4899193;29;20139;-73
2022/10/22 02:25:43;;;;;;;0.98;0.40;;;;;;;12.29;100.00;96139.34;4914166;29;20048;-73
2022/10/22 02:28:59;;;;;;;0.73;0.32;;;;;;;12.26;100.00;96147.94;4910957;29;20496;-75
2022/10/22 02:31:47;;;;;;;0.55;0.20;;;;;;;12.25;100.00;96146.34;4913101;29;20044;-74
2022/10/22 02:34:33;;;;;;;0.10;0.10;;;;;;;12.10;100.00;96139.06;4915215;29;20387;-75
2022/10/22 02:37:20;;;;;;;0.10;0.10;;;;;;;11.84;100.00;96113.28;4912285;29;20051;-74
2022/10/22 02:40:07;;;;;;;0.13;0.13;;;;;;;11.75;100.00;96134.41;4909925;29;20035;-76
2022/10/22 02:42:53;;;;;;;0.10;0.10;;;;;;;11.79;100.00;96164.94;4909391;29;20475;-74
2022/10/22 02:45:39;;;;;;;0.10;0.10;;;;;;;11.75;100.00;96185.34;4914956;29;20122;-75
2022/10/22 02:48:25;;;;;;;0.10;0.10;;;;;;;11.87;100.00;96174.41;4909810;29;20043;-75
2022/10/22 02:51:11;;;;;;;0.10;0.10;;;;;;;11.86;100.00;96157.50;4910436;29;20411;-75
2022/10/22 02:53:57;;;;;;;0.10;0.10;;;;;;;11.96;100.00;96149.47;4910822;29;20356;-75
2022/10/22 02:56:43;;;;;;;0.10;0.10;;;;;;;12.05;100.00;96151.66;4911330;29;20054;-75
2022/10/22 02:59:28;;;;;;;0.10;0.10;;;;;;;11.93;100.00;96146.53;4910036;29;20119;-75
2022/10/22 03:02:15;;;;;;;0.10;0.10;;;;;;;11.88;100.00;96138.47;4908732;29;20090;-74
2022/10/22 03:05:01;;;;;;;0.10;0.10;;;;;;;11.87;100.00;96147.59;4910482;29;20074;-75
2022/10/22 03:07:47;;;;;;;0.10;0.10;;;;;;;11.94;100.00;96143.59;4910122;29;20493;-75
2022/10/22 03:10:33;;;;;;;0.10;0.10;;;;;;;12.02;100.00;96146.81;4910283;29;20304;-74
2022/10/22 03:13:19;;;;;;;0.10;0.10;;;;;;;12.04;100.00;96147.34;4908180;29;20496;-75
2022/10/22 03:16:05;;;;;;;0.10;0.10;;;;;;;12.16;100.00;96150.63;4915228;28;20418;-75
2022/10/22 03:18:51;;;;;;;0.10;0.10;;;;;;;12.23;100.00;96151.16;4911699;29;20283;-75
2022/10/22 03:21:38;;;;;;;0.10;0.10;;;;;;;12.27;100.00;96144.97;4914132;29;20048;-75
2022/10/22 03:24:35;;;;;;;0.10;0.10;;;;;;;12.33;100.00;96148.50;4914486;29;20377;-75
2022/10/22 03:27:21;;;;;;;0.10;0.10;;;;;;;12.13;100.00;96151.13;4916244;29;20487;-74
2022/10/22 03:30:08;;;;;;;0.10;0.10;;;;;;;12.02;100.00;96155.66;4912312;29;20039;-74
2022/10/22 03:32:54;;;;;;;0.10;0.10;;;;;;;11.97;100.00;96143.03;4916368;29;20043;-74
2022/10/22 03:35:45;;;;;;;0.10;0.10;;;;;;;11.98;100.00;96150.03;4916648;29;20468;-76
2022/10/22 03:38:31;;;;;;;;;;;;;;;11.98;100.00;96143.84;4911387;29;20063;-76
2022/10/22 03:41:17;;;;;;;0.10;0.10;;;;;;;11.96;100.00;96152.16;4910578;29;19922;-75
2022/10/22 03:44:04;;;;;;;0.10;0.10;;;;;;;12.00;100.00;96155.13;4914157;29;20059;-74
2022/10/22 03:46:50;;;;;;;0.10;0.10;;;;;;;12.12;100.00;96154.88;4913353;29;20052;-75
2022/10/22 03:49:36;;;;;;;0.10;0.10;;;;;;;12.11;100.00;96154.06;4913599;29;20043;-76
2022/10/22 03:52:22;;;;;;;0.10;0.10;;;;;;;12.10;100.00;96148.97;4913169;29;20063;-75
2022/10/22 03:55:09;;;;;;;0.10;0.10;;;;;;;12.08;100.00;96159.19;4914434;29;20484;-76
2022/10/22 03:57:54;;;;;;;0.10;0.10;;;;;;;12.04;100.00;96147.34;4914646;29;20103;-76
2022/10/22 04:00:41;;;;;;;0.10;0.10;;;;;;;12.06;100.00;96151.41;4916662;29;20060;-74
2022/10/22 04:03:26;;;;;;;0.00;0.00;;;;;;;11.99;100.00;96153.53;4913486;29;20237;-75
2022/10/22 04:06:12;;;;;;;0.10;0.10;;;;;;;11.65;100.00;96145.06;4913271;29;20048;-75
2022/10/22 04:08:58;;;;;;;0.10;0.10;;;;;;;11.56;100.00;96152.81;4912777;29;20191;-75
2022/10/22 04:11:44;;;;;;;0.10;0.10;;;;;;;11.54;100.00;96163.00;4912968;29;20044;-74
2022/10/22 04:14:30;;;;;;;0.10;0.10;;;;;;;11.58;100.00;96156.03;4913000;29;20512;-76
2022/10/22 04:17:16;;;;;;;0.10;0.10;;;;;;;11.52;100.00;96156.28;4912450;29;20063;-75
2022/10/22 04:20:03;;;;;;;0.10;0.10;;;;;;;11.50;100.00;96167.25;4916532;29;20705;-74
2022/10/22 04:22:49;;;;;;;0.10;0.10;;;;;;;11.48;100.00;96163.22;4919076;29;20055;-74
2022/10/22 04:25:35;;;;;;;0.32;0.20;;;;;;;11.42;100.00;96181.94;4918061;29;20044;-74
2022/10/22 04:28:21;;;;;;;0.10;0.10;;;;;;;11.41;100.00;96179.53;4912641;29;20206;-74
2022/10/22 04:31:13;;;;;;;0.10;0.10;;;;;;;11.47;100.00;96180.38;4914922;29;20422;-75
2022/10/22 04:34:00;;;;;;;0.10;0.10;;;;;;;11.44;100.00;96179.03;4916077;29;20055;-75
2022/10/22 04:36:46;;;;;;;0.10;0.10;;;;;;;11.40;100.00;96178.72;4913643;29;20048;-73
2022/10/22 04:39:31;;;;;;;0.10;0.10;;;;;;;11.47;100.00;96180.38;4912257;29;20358;-75
2022/10/22 04:42:17;;;;;;;0.10;0.10;;;;;;;11.40;100.00;96185.97;4913795;28;20044;-74
2022/10/22 04:45:03;;;;;;;0.10;0.10;;;;;;;11.33;100.00;96196.91;4915913;29;20050;-74
2022/10/22 04:47:49;;;;;;;0.10;0.10;;;;;;;11.32;100.00;96205.19;4914298;29;20389;-75
2022/10/22 04:50:35;;;;;;;0.13;0.13;;;;;;;11.35;100.00;96200.13;4913477;29;20052;-74
2022/10/22 04:53:21;;;;;;;0.10;0.10;;;;;;;11.31;100.00;96201.72;4912540;29;20664;-74
2022/10/22 04:56:15;;;;;;;0.10;0.10;;;;;;;11.35;100.00;96208.16;4915047;29;20043;-74
2022/10/22 04:59:05;;;;;;;0.10;0.10;;;;;;;11.29;100.00;96217.25;4911379;29;20460;-75
2022/10/22 05:01:51;;;;;;;0.20;0.20;;;;;;;11.30;100.00;96218.06;4907588;29;20048;-74
2022/10/22 05:04:37;;;;;;;0.10;0.10;;;;;;;11.29;100.00;96219.94;4914894;29;20044;-74
2022/10/22 05:07:24;;;;;;;0.13;0.13;;;;;;;11.36;100.00;96219.66;4899617;29;20130;-73
2022/10/22 05:10:09;;;;;;;0.10;0.10;;;;;;;11.35;100.00;96229.59;4900473;29;20465;-75
2022/10/22 05:12:55;;;;;;;0.10;0.10;;;;;;;11.28;100.00;96236.22;4912121;29;20372;-74
2022/10/22 05:15:41;;;;;;;0.15;0.15;;;;;;;11.26;100.00;96247.22;4913750;29;20078;-75
2022/10/22 05:18:27;;;;;;;0.10;0.10;;;;;;;11.31;100.00;96251.81;4912748;29;20150;-73
2022/10/22 05:21:15;;;;;;;0.10;0.10;;;;;;;11.32;100.00;96251.53;4912720;29;20551;-74
2022/10/22 05:24:04;;;;;;;0.10;0.10;;;;;;;11.26;100.00;96252.56;4913708;29;20044;-75
2022/10/22 05:26:54;;;;;;;0.10;0.10;;;;;;;11.19;100.00;96254.66;4914688;29;20043;-74
2022/10/22 05:29:42;;;;;;;0.13;0.13;;;;;;;11.26;100.00;96257.91;4913344;29;20139;-74
2022/10/22 05:32:27;;;;;;;0.10;0.10;;;;;;;11.26;100.00;96249.88;4912804;29;20513;-74
2022/10/22 05:35:13;;;;;;;0.20;0.20;;;;;;;11.28;100.00;96247.75;4914255;28;20039;-76
2022/10/22 05:37:59;;;;;;;0.10;0.10;;;;;;;11.29;100.00;96244.03;4916289;29;20116;-76
2022/10/22 05:40:45;;;;;;;0.10;0.10;;;;;;;11.35;100.00;96258.25;4914172;29;20055;-74
2022/10/22 05:43:31;;;;;;;0.10;0.10;;;;;;;11.32;100.00;96251.53;4911734;29;20395;-75
2022/10/22 05:46:20;;;;;;;0.10;0.10;;;;;;;11.31;100.00;96247.25;4907864;29;20055;-73
2022/10/22 05:49:06;;;;;;;0.10;0.10;;;;;;;11.32;100.00;96248.06;4912930;29;20047;-72
2022/10/22 05:51:52;;;;;;;0.10;0.10;;;;;;;11.41;100.00;96266.06;4913025;28;20059;-72
2022/10/22 05:54:38;;;;;;;0.10;0.10;;;;;;;11.38;100.00;96269.28;4912002;29;20138;-73
2022/10/22 05:57:24;;;;;;;0.20;0.20;;;;;;;11.33;100.00;96268.41;4910988;29;20500;-73
2022/10/22 06:00:10;;;;;;;0.10;0.10;;;;;;;11.24;100.00;96262.72;4908604;29;20556;-73
2022/10/22 06:02:56;;;;;;;0.10;0.10;;;;;;;11.26;100.00;96267.84;4911257;29;20488;-75
2022/10/22 06:05:42;;;;;;;0.10;0.10;;;;;;;11.23;100.00;96281.75;4913644;29;20283;-73
2022/10/22 06:08:29;;;;;;;0.10;0.10;;;;;;;11.26;100.00;96276.66;4908640;29;20062;-75
2022/10/22 06:11:16;;;;;;;0.10;0.10;;;;;;;11.26;100.00;96281.22;4910378;29;20040;-75
2022/10/22 06:14:03;;;;;;;0.10;0.10;;;;;;;11.21;100.00;96279.31;4910761;29;20044;-76
2022/10/22 06:16:49;;;;;;;0.15;0.10;;;;;;;11.25;100.00;96274.25;4915107;29;20075;-73
2022/10/22 06:19:35;;;;;;;0.10;0.10;;;;;;;11.30;100.00;96277.78;4915580;29;20048;-76
2022/10/22 06:22:21;;;;;;;0.10;0.10;;;;;;;11.48;100.00;96278.44;4911525;29;20335;-76
2022/10/22 06:25:07;;;;;;;0.10;0.10;;;;;;;11.57;100.00;96288.41;4911699;29;20521;-77
2022/10/22 06:27:53;;;;;;;0.10;0.10;;;;;;;11.64;100.00;96285.50;4897490;29;20061;-76
2022/10/22 06:30:39;;;;;;;0.17;0.17;;;;;;;11.66;100.00;96288.72;4912310;29;20138;-73
2022/10/22 06:33:26;;;;;;;0.10;0.10;;;;;;;11.59;100.00;96291.63;4910892;29;20546;-74
2022/10/22 06:36:19;;;;;;;0.10;0.10;;;;;;;11.63;100.00;96286.56;4912158;29;20047;-74
2022/10/22 06:39:04;;;;;;;0.10;0.10;;;;;;;11.55;100.00;96295.91;4911544;29;20040;-74
2022/10/22 06:41:52;;;;;;;0.10;0.10;;;;;;;11.56;100.00;96310.91;4915007;29;20047;-75
2022/10/22 06:44:38;;;;;;;0.10;0.10;;;;;;;11.68;100.00;96316.09;4913654;29;20044;-75
2022/10/22 06:47:24;;;;;;;0.10;0.10;;;;;;;11.81;100.00;96320.19;4915459;29;20230;-74
2022/10/22 06:50:10;;;;;;;0.10;0.10;;;;;;;11.92;100.00;96316.53;4912615;29;20445;-75
2022/10/22 06:52:56;;;;;;;0.10;0.10;;;;;;;11.96;100.00;96325.66;4911906;29;20059;-76
2022/10/22 06:55:43;;;;;;;0.15;0.15;;;;;;;12.06;100.00;96324.88;4919056;29;20047;-75
2022/10/22 06:58:28;;;;;;;0.10;0.10;;;;;;;12.04;100.00;96330.53;4916377;29;20183;-74
2022/10/22 07:01:16;;;;;;;0.10;0.10;;;;;;;12.09;100.00;96333.25;4910776;29;20667;-75
2022/10/22 07:04:03;;;;;;;0.10;0.10;;;;;;;12.11;100.00;96343.69;4898115;29;20101;-76
2022/10/22 07:06:48;;;;;;;0.10;0.10;;;;;;;12.17;100.00;96348.03;4918230;29;20037;-74
2022/10/22 07:09:34;;;;;;;0.10;0.10;;;;;;;12.20;100.00;96339.44;4915854;29;20095;-74
2022/10/22 07:12:20;;;;;;;0.10;0.10;;;;;;;12.26;100.00;96338.41;4914946;29;20472;-75
2022/10/22 07:15:06;;;;;;;0.15;0.15;;;;;;;12.37;100.00;96352.66;4918578;29;20481;-76
2022/10/22 07:17:52;;;;;;;0.30;0.13;;;;;;;12.40;100.00;96355.66;4918606;29;20052;-75
2022/10/22 07:20:39;;;;;;;0.10;0.10;;;;;;;12.42;100.00;96360.75;4916661;29;20528;-75
2022/10/22 07:23:25;;;;;;;0.10;0.10;;;;;;;12.47;100.00;96360.78;4915209;29;20047;-74
2022/10/22 07:26:14;;;;;;;0.10;0.10;;;;;;;12.43;100.00;96360.47;4916364;29;20039;-73
2022/10/22 07:29:00;;;;;;;0.20;0.20;;;;;;;12.51;100.00;96370.72;4920429;29;20039;-75
2022/10/22 07:31:46;;;;;;;0.10;0.10;;;;;;;12.50;100.00;96374.47;4916210;29;20052;-74
2022/10/22 07:34:32;;;;;;;0.28;0.15;;;;;;;12.44;100.00;96375.50;4907575;29;20089;-75
2022/10/22 07:37:20;;;;;;;0.10;0.10;;;;;;;12.36;100.00;96376.00;4915073;29;20103;-73
2022/10/22 07:40:07;;;;;;;0.20;0.10;;;;;;;12.52;100.00;96377.69;4917530;29;20134;-75
2022/10/22 07:42:53;;;;;;;0.10;0.10;;;;;;;12.70;100.00;96381.81;4913555;29;20122;-73
2022/10/22 07:45:40;;;;;;;0.20;0.17;;;;;;;12.89;100.00;96382.13;4914745;29;20081;-73
2022/10/22 07:48:25;;;;;;;0.10;0.10;;;;;;;12.76;100.00;96379.91;4916731;29;20635;-75
2022/10/22 07:51:12;;;;;;;0.10;0.10;;;;;;;12.91;100.00;96381.84;4913304;29;20625;-73
2022/10/22 07:53:58;;;;;;;0.13;0.13;;;;;;;13.07;100.00;96378.94;4912421;29;20433;-74
2022/10/22 07:56:43;;;;;;;0.10;0.10;;;;;;;13.05;100.00;96394.50;4916367;29;20050;-73
2022/10/22 07:59:30;;;;;;;0.10;0.10;;;;;;;13.10;100.00;96394.53;4916896;29;20279;-75
2022/10/22 08:02:15;;;;;;;0.13;0.13;;;;;;;13.11;100.00;96406.88;4911870;29;20132;-73
2022/10/22 08:05:01;;;;;;;0.10;0.10;;;;;;;13.24;100.00;96400.22;4914901;29;20079;-76
2022/10/22 08:07:47;;;;;;;0.10;0.10;;;;;;;13.16;100.00;96405.28;4914160;29;20040;-73
2022/10/22 08:10:33;;;;;;;0.10;0.10;;;;;;;13.23;100.00;96404.00;4916263;29;20110;-76
2022/10/22 08:13:19;;;;;;;0.10;0.10;;;;;;;12.99;100.00;96411.66;4910419;29;21000;-76
2022/10/22 08:16:05;;;;;;;0.13;0.13;;;;;;;13.10;100.00;96416.00;4915813;29;20047;-75
2022/10/22 08:18:51;;;;;;;0.10;0.10;;;;;;;13.11;100.00;96423.00;4915171;29;20063;-77
2022/10/22 08:21:37;;;;;;;0.10;0.10;;;;;;;13.16;100.00;96407.97;4912871;29;20420;-75
2022/10/22 08:24:23;;;;;;;0.10;0.10;;;;;;;13.53;100.00;96403.19;4914054;29;20527;-73
2022/10/22 08:27:09;;;;;;;0.10;0.10;;;;;;;13.60;100.00;96406.41;4915036;29;20043;-74
2022/10/22 08:29:55;;;;;;;0.10;0.10;;;;;;;13.62;100.00;96414.25;4916952;29;20573;-74
2022/10/22 08:32:41;;;;;;;0.10;0.10;;;;;;;13.18;100.00;96420.06;4913962;29;20058;-73
2022/10/22 08:35:26;;;;;;;0.10;0.10;;;;;;;13.22;100.00;96425.72;4913219;29;20044;-76
2022/10/22 08:38:12;;;;;;;0.30;0.20;;;;;;;13.69;100.00;96422.81;4913058;29;20048;-75
2022/10/22 08:41:17;;;;;;;0.17;0.17;;;;;;;13.44;100.00;96422.81;4914915;29;20050;-76
2022/10/22 08:45:00;;;;;;;0.10;0.10;;;;;;;13.59;100.00;96437.06;4912189;29;20119;-75
2022/10/22 08:48:16;;;;;;;0.10;0.10;;;;;;;13.23;100.00;96432.72;4840588;29;20040;-74
2022/10/22 08:51:02;;;;;;;0.13;0.10;;;;;;;13.26;100.00;96433.00;4917049;29;20082;-76
2022/10/22 08:53:54;;;;;;;0.20;0.20;;;;;;;13.30;100.00;96447.50;4913117;29;20422;-74
2022/10/22 08:56:44;;;;;;;0.10;0.10;;;;;;;13.00;100.00;96450.91;4914344;29;20059;-75
2022/10/22 08:59:59;;;;;;;0.20;0.20;;;;;;;13.31;100.00;96449.16;4913642;29;20035;-75
2022/10/22 09:03:09;;;;;;;0.10;0.10;;;;;;;13.41;100.00;96444.88;4912332;29;20048;-74
2022/10/22 09:06:00;;;;;;;0.20;0.20;;;;;;;13.58;100.00;96451.59;4915829;29;20078;-75
2022/10/22 09:08:46;;;;;;;;;;;;;;;14.17;100.00;96459.13;4914569;29;20593;-73
2022/10/22 09:11:36;;;;;;;0.30;0.15;;;;;;;15.28;100.00;96451.78;4913513;29;19927;-76
2022/10/22 09:14:24;;;;;;;0.20;0.20;;;;;;;15.52;100.00;96438.41;4911271;29;20047;-74
2022/10/22 09:17:15;;;;;;;0.10;0.10;;;;;;;15.29;100.00;96456.09;4913859;29;20047;-74
2022/10/22 09:20:10;;;;;;;0.20;0.20;;;;;;;15.14;100.00;96450.78;4912300;29;20681;-77
2022/10/22 09:23:03;;;;;;;0.10;0.10;;;;;;;15.42;100.00;96449.28;4881175;29;20138;-75
2022/10/22 09:25:50;;;;;;;0.10;0.10;;;;;;;15.16;100.00;96453.19;4917999;29;20538;-74
2022/10/22 09:28:36;;;;;;;0.10;0.10;;;;;;;15.52;100.00;96461.88;4913390;29;20051;-74
2022/10/22 09:31:25;;;;;;;0.20;0.20;;;;;;;16.23;100.00;96465.97;4914848;29;20143;-74
2022/10/22 09:34:20;;;;;;;0.17;0.17;;;;;;;16.06;100.00;96466.38;4914412;29;20642;-75
2022/10/22 09:37:09;;;;;;;0.20;0.20;;;;;;;16.36;100.00;96465.31;4915514;29;20135;-75
2022/10/22 09:39:57;;;;;;;0.10;0.10;;;;;;;15.50;100.00;96480.25;4917679;28;20039;-75
2022/10/22 09:42:45;;;;;;;0.10;0.10;;;;;;;15.01;100.00;96481.81;4915280;29;20486;-76
2022/10/22 09:45:31;;;;;;;0.10;0.10;;;;;;;15.47;100.00;96475.41;4915089;29;20342;-76
2022/10/22 09:48:25;;;;;;;0.20;0.20;;;;;;;17.29;100.00;96474.81;4909984;29;20566;-75
2022/10/22 09:51:50;;;;;;;0.10;0.10;;;;;;;16.86;100.00;96477.47;4870290;29;20177;-77
2022/10/22 09:55:30;;;;;;;0.10;0.10;;;;;;;17.17;100.00;96490.63;4796458;29;20094;-76
2022/10/22 09:58:18;;;;;;;0.10;0.10;;;;;;;19.84;100.00;96481.91;4828422;29;20048;-75
2022/10/22 10:01:06;;;;;;;0.10;0.10;;;;;;;18.95;100.00;96490.56;4896307;29;20054;-73
2022/10/22 10:04:12;;;;;;;0.10;0.10;;;;;;;18.48;100.00;96487.06;4878104;29;20303;-77
2022/10/22 10:06:58;;;;;;;0.20;0.20;;;;;;;18.03;100.00;96494.84;4841828;29;20662;-74
2022/10/22 10:09:45;;;;;;;0.20;0.20;;;;;;;17.97;100.00;96484.41;4891226;29;20815;-76
2022/10/22 10:12:51;;;;;;;0.10;0.10;;;;;;;16.40;100.00;96493.34;4897089;29;20052;-74
2022/10/22 10:15:54;;;;;;;0.10;0.10;;;;;;;16.57;100.00;96493.69;4899896;29;20051;-76
2022/10/22 10:19:08;;;;;;;0.10;0.10;;;;;;;16.58;100.00;96494.53;4896662;29;20059;-75
2022/10/22 10:22:04;;;;;;;0.20;0.20;;;;;;;20.14;100.00;96493.16;4863890;29;20236;-77
2022/10/22 10:25:14;;;;;;;0.10;0.10;;;;;;;20.13;100.00;96484.22;4820240;29;20517;-77
2022/10/22 10:28:37;;;;;;;0.20;0.20;;;;;;;17.97;100.00;96493.31;4897129;29;20485;-75
2022/10/22 10:31:25;;;;;;;0.10;0.10;;;;;;;17.90;100.00;96479.38;4901902;29;20056;-75
2022/10/22 10:34:27;;;;;;;0.10;0.10;;;;;;;17.25;100.00;96492.69;4899660;29;20055;-74
2022/10/22 10:37:28;;;;;;;0.10;0.10;;;;;;;16.48;100.00;96491.91;4827997;29;20334;-77
2022/10/22 10:40:22;;;;;;;0.10;0.10;;;;;;;16.56;100.00;96486.69;4546992;29;10001321;-74
2022/10/22 10:43:39;;;;;;;0.10;0.10;;;;;;;16.47;100.00;96506.50;4899365;29;20508;-74
2022/10/22 10:46:40;;;;;;;0.10;0.10;;;;;;;16.04;100.00;96495.56;4886635;29;20084;-74
2022/10/22 10:49:30;;;;;;;0.10;0.10;;;;;;;16.10;100.00;96507.91;4900901;29;20485;-74
2022/10/22 10:52:42;;;;;;;0.10;0.10;;;;;;;15.50;100.00;96513.41;4899747;29;20221;-75
2022/10/22 10:55:49;;;;;;;0.10;0.10;;;;;;;15.55;100.00;96510.66;4901223;29;20092;-75
2022/10/22 10:59:00;;;;;;;0.10;0.10;;;;;;;15.46;100.00;96516.94;4917908;29;20059;-74
2022/10/22 11:01:52;;;;;;;0.10;0.10;;;;;;;15.28;100.00;96508.38;4919574;29;20128;-75
2022/10/22 11:05:05;;;;;;;0.10;0.10;;;;;;;15.21;100.00;96518.66;4911566;29;20125;-74
2022/10/22 11:07:58;;;;;;;0.10;0.10;;;;;;;15.36;100.00;96523.19;4906765;29;20047;-76
2022/10/22 11:11:05;;;;;;;0.20;0.10;;;;;;;15.38;100.00;96512.13;4910965;29;20047;-76
2022/10/22 11:14:10;;;;;;;0.10;0.10;;;;;;;15.54;100.00;96517.16;4909707;29;20044;-75
2022/10/22 11:17:03;;;;;;;0.10;0.10;;;;;;;16.05;100.00;96513.34;4910965;29;20622;-76
2022/10/22 11:20:01;;;;;;;0.10;0.10;;;;;;;16.12;100.00;96509.25;4910700;29;20055;-75
2022/10/22 11:22:54;;;;;;;0.20;0.20;;;;;;;16.44;100.00;96519.50;4920139;29;20627;-75
2022/10/22 11:25:44;;;;;;;0.10;0.10;;;;;;;16.47;100.00;96510.00;4911667;29;20297;-77
2022/10/22 11:28:36;;;;;;;0.10;0.10;;;;;;;16.47;100.00;96518.13;4903951;29;20425;-76
2022/10/22 11:31:24;;;;;;;0.10;0.10;;;;;;;16.47;100.00;96517.31;4918183;29;20456;-75
2022/10/22 11:34:39;;;;;;;0.20;0.20;;;;;;;16.33;100.00;96517.16;4917048;29;20531;-75
2022/10/22 11:37:38;;;;;;;0.13;0.10;;;;;;;15.80;100.00;96512.44;4915961;29;20086;-76
2022/10/22 11:40:27;;;;;;;0.10;0.10;;;;;;;15.92;100.00;96516.69;4914274;29;20047;-76
2022/10/22 11:43:36;;;;;;;0.10;0.10;;;;;;;16.04;100.00;96522.53;4902511;29;20288;-74
2022/10/22 11:46:23;;;;;;;0.15;0.15;;;;;;;16.23;100.00;96509.97;4919683;29;20058;-75
2022/10/22 11:49:11;;;;;;;0.10;0.10;;;;;;;16.74;100.00;96506.81;4915513;29;20050;-76
2022/10/22 11:52:22;;;;;;;0.10;0.10;;;;;;;17.02;100.00;96512.44;4917787;29;20060;-74
2022/10/22 11:55:48;;;;;;;0.20;0.20;;;;;;;17.17;100.00;96512.28;4915366;29;20039;-74
2022/10/22 11:58:43;;;;;;;0.13;0.13;;;;;;;17.42;100.00;96503.03;4838221;29;20061;-74
2022/10/22 12:01:40;;;;;;;0.10;0.10;;;;;;;16.64;100.00;96517.69;4831487;29;20057;-75
2022/10/22 12:04:40;;;;;;;0.17;0.10;;;;;;;15.61;100.00;96516.88;4894812;29;20154;-74
2022/10/22 12:07:49;;;;;;;0.20;0.20;;;;;;;16.17;100.00;96516.47;4918903;29;20993;-74
2022/10/22 12:10:49;;;;;;;0.10;0.10;;;;;;;16.23;100.00;96507.25;4917687;29;20401;-77
2022/10/22 12:14:15;;;;;;;0.20;0.20;;;;;;;16.51;100.00;96504.88;4919080;28;20575;-74
2022/10/22 12:17:03;;;;;;;0.20;0.20;;;;;;;16.68;100.00;96495.22;4919160;29;20440;-73
2022/10/22 12:20:17;;;;;;;0.10;0.10;;;;;;;16.58;100.00;96495.34;4917360;29;20083;-74
2022/10/22 12:23:04;;;;;;;0.10;0.10;;;;;;;17.19;100.00;96508.16;4900524;29;20047;-74
2022/10/22 12:25:50;;;;;;;0.20;0.20;;;;;;;17.19;100.00;96502.75;4915615;28;20044;-74
2022/10/22 12:28:39;;;;;;;0.10;0.10;;;;;;;16.93;100.00;96507.69;4910889;29;20875;-73
2022/10/22 12:31:26;;;;;;;0.10;0.10;;;;;;;16.96;100.00;96492.78;4917176;29;20058;-76
2022/10/22 12:34:24;;;;;;;0.10;0.10;;;;;;;16.84;100.00;96498.59;4913665;29;20048;-73
2022/10/22 12:37:12;;;;;;;0.10;0.10;;;;;;;16.80;100.00;96494.03;4915713;29;20614;-74
2022/10/22 12:40:02;;;;;;;0.10;0.10;;;;;;;16.77;100.00;96492.72;4916687;29;20504;-76
2022/10/22 12:42:51;;;;;;;0.20;0.20;;;;;;;16.59;100.00;96506.94;4912904;29;20569;-73
2022/10/22 12:45:38;;;;;;;0.10;0.10;;;;;;;16.50;100.00;96514.03;4911293;29;20044;-73
2022/10/22 12:48:29;;;;;;;0.10;0.10;;;;;;;15.87;100.00;96515.66;4911484;29;20497;-74
2022/10/22 12:51:18;;;;;;;0.10;0.10;;;;;;;16.02;100.00;96513.91;4918375;29;20047;-76
2022/10/22 12:54:24;;;;;;;0.10;0.10;;;;;;;16.04;100.00;96512.56;4915036;29;20083;-73
2022/10/22 12:57:17;;;;;;;0.10;0.10;;;;;;;16.00;100.00;96514.19;4915652;29;20581;-73
2022/10/22 13:00:03;;;;;;;0.10;0.10;;;;;;;15.98;100.00;96504.78;4916266;29;20070;-73
2022/10/22 13:02:49;;;;;;;0.10;0.10;;;;;;;16.02;100.00;96517.41;4914255;29;20040;-71
2022/10/22 13:05:38;;;;;;;0.25;0.25;;;;;;;16.66;100.00;96499.31;4915059;29;20043;-76
2022/10/22 13:08:28;;;;;;;0.20;0.20;;;;;;;18.77;100.00;96502.31;4915279;29;20484;-73
2022/10/22 13:11:19;;;;;;;0.20;0.20;;;;;;;20.19;100.00;96496.56;4911591;29;20151;-74
2022/10/22 13:14:20;;;;;;;0.10;0.10;;;;;;;22.63;98.48;96491.44;4913333;29;20638;-75
2022/10/22 13:17:17;;;;;;;0.30;0.30;;;;;;;24.84;83.20;96485.47;4916612;29;20036;-76
2022/10/22 13:20:16;;;;;;;0.20;0.20;;;;;;;27.55;64.82;96496.00;4916903;29;20344;-74